sensor_id;sensor_type;location;lat;lon;timestamp;pressure;altitude;pressure_sealevel;temperature;humidity
39411;BME280;26579;43.238;23.124;2022-11-18T00:00:38;95854.94;;;11.54;70.36
39411;BME280;26579;43.238;23.124;2022-11-18T00:03:32;95860.16;;;11.54;70.79
39411;BME280;26579;43.238;23.124;2022-11-18T00:06:23;95847.59;;;11.49;70.56
39411;BME280;26579;43.238;23.124;2022-11-18T00:09:12;95861.28;;;11.51;70.87
39411;BME280;26579;43.238;23.124;2022-11-18T00:12:07;95870.44;;;11.55;70.88
39411;BME280;26579;43.238;23.124;2022-11-18T00:14:43;95846.75;;;11.41;70.84
39411;BME280;26579;43.238;23.124;2022-11-18T00:17:34;95853.59;;;11.42;71.06
39411;BME280;26579;43.238;23.124;2022-11-18T00:20:12;95864.41;;;11.55;70.92
39411;BME280;26579;43.238;23.124;2022-11-18T00:22:47;95866.00;;;11.48;71.33
39411;BME280;26579;43.238;23.124;2022-11-18T00:25:30;95859.34;;;11.53;70.97
39411;BME280;26579;43.238;23.124;2022-11-18T00:28:26;95849.72;;;11.54;71.12
39411;BME280;26579;43.238;23.124;2022-11-18T00:31:12;95807.28;;;11.27;71.27
39411;BME280;26579;43.238;23.124;2022-11-18T00:34:14;95837.97;;;11.42;71.01
39411;BME280;26579;43.238;23.124;2022-11-18T00:36:50;95854.44;;;11.50;71.16
39411;BME280;26579;43.238;23.124;2022-11-18T00:39:34;95838.44;;;11.45;71.39
39411;BME280;26579;43.238;23.124;2022-11-18T00:42:02;95852.00;;;11.57;71.19
39411;BME280;26579;43.238;23.124;2022-11-18T00:44:30;95848.28;;;11.60;71.05
39411;BME280;26579;43.238;23.124;2022-11-18T00:47:01;95824.13;;;11.41;71.03
39411;BME280;26579;43.238;23.124;2022-11-18T00:49:37;95848.41;;;11.50;70.98
39411;BME280;26579;43.238;23.124;2022-11-18T00:52:12;95855.63;;;11.64;70.85
39411;BME280;26579;43.238;23.124;2022-11-18T00:54:47;95830.13;;;11.42;70.78
39411;BME280;26579;43.238;23.124;2022-11-18T00:57:27;95847.88;;;11.38;71.64
39411;BME280;26579;43.238;23.124;2022-11-18T01:00:13;95844.16;;;11.41;71.38
39411;BME280;26579;43.238;23.124;2022-11-18T01:02:54;95824.66;;;11.53;71.56
39411;BME280;26579;43.238;23.124;2022-11-18T01:05:39;95843.59;;;11.71;71.96
39411;BME280;26579;43.238;23.124;2022-11-18T01:08:20;95830.44;;;11.81;71.89
39411;BME280;26579;43.238;23.124;2022-11-18T01:11:14;95838.16;;;11.99;71.83
39411;BME280;26579;43.238;23.124;2022-11-18T01:13:42;95841.72;;;12.06;70.75
39411;BME280;26579;43.238;23.124;2022-11-18T01:16:22;95848.44;;;12.25;71.04
39411;BME280;26579;43.238;23.124;2022-11-18T01:19:11;95845.50;;;12.36;70.43
39411;BME280;26579;43.238;23.124;2022-11-18T01:22:05;95846.00;;;12.48;69.49
39411;BME280;26579;43.238;23.124;2022-11-18T01:24:46;95840.44;;;12.51;69.66
39411;BME280;26579;43.238;23.124;2022-11-18T01:27:42;95844.53;;;12.54;69.62
39411;BME280;26579;43.238;23.124;2022-11-18T01:30:22;95838.47;;;12.53;69.48
39411;BME280;26579;43.238;23.124;2022-11-18T01:33:09;95839.59;;;12.59;68.87
39411;BME280;26579;43.238;23.124;2022-11-18T01:36:14;95830.97;;;12.66;68.94
39411;BME280;26579;43.238;23.124;2022-11-18T01:39:10;95822.78;;;12.69;68.76
39411;BME280;26579;43.238;23.124;2022-11-18T01:41:59;95827.19;;;12.77;68.17
39411;BME280;26579;43.238;23.124;2022-11-18T01:51:17;95814.88;;;13.02;64.89
39411;BME280;26579;43.238;23.124;2022-11-18T01:54:10;95819.06;;;13.20;64.20
39411;BME280;26579;43.238;23.124;2022-11-18T01:57:28;95805.03;;;13.21;65.28
39411;BME280;26579;43.238;23.124;2022-11-18T02:00:21;95820.00;;;13.35;65.42
39411;BME280;26579;43.238;23.124;2022-11-18T02:03:05;95813.50;;;13.23;66.09
39411;BME280;26579;43.238;23.124;2022-11-18T02:05:56;95810.28;;;13.12;66.59
39411;BME280;26579;43.238;23.124;2022-11-18T02:08:56;95813.84;;;13.20;66.83
39411;BME280;26579;43.238;23.124;2022-11-18T02:11:43;95797.50;;;13.18;65.66
39411;BME280;26579;43.238;23.124;2022-11-18T02:14:44;95803.53;;;13.26;65.10
39411;BME280;26579;43.238;23.124;2022-11-18T02:17:39;95791.44;;;13.33;63.93
39411;BME280;26579;43.238;23.124;2022-11-18T02:20:46;95799.75;;;13.37;64.46
39411;BME280;26579;43.238;23.124;2022-11-18T02:23:49;95795.31;;;13.46;61.80
39411;BME280;26579;43.238;23.124;2022-11-18T02:30:06;95800.22;;;13.72;60.21
39411;BME280;26579;43.238;23.124;2022-11-18T02:33:32;95807.78;;;13.90;58.82
39411;BME280;26579;43.238;23.124;2022-11-18T02:36:43;95800.66;;;14.07;58.70
39411;BME280;26579;43.238;23.124;2022-11-18T02:39:38;95806.47;;;14.17;58.69
39411;BME280;26579;43.238;23.124;2022-11-18T02:42:29;95805.03;;;14.14;58.18
39411;BME280;26579;43.238;23.124;2022-11-18T02:45:26;95766.53;;;14.00;57.61
39411;BME280;26579;43.238;23.124;2022-11-18T02:48:19;95799.03;;;14.29;57.56
39411;BME280;26579;43.238;23.124;2022-11-18T02:51:14;95791.91;;;14.37;56.67
39411;BME280;26579;43.238;23.124;2022-11-18T02:54:08;95763.69;;;14.24;56.09
39411;BME280;26579;43.238;23.124;2022-11-18T02:57:13;95799.41;;;14.63;55.74
39411;BME280;26579;43.238;23.124;2022-11-18T03:00:17;95784.94;;;14.67;54.71
39411;BME280;26579;43.238;23.124;2022-11-18T03:09:27;95806.38;;;15.01;53.84
39411;BME280;26579;43.238;23.124;2022-11-18T03:15:28;95801.25;;;15.07;54.35
39411;BME280;26579;43.238;23.124;2022-11-18T03:18:58;95783.25;;;15.04;53.84
39411;BME280;26579;43.238;23.124;2022-11-18T03:21:41;95763.47;;;14.87;54.65
39411;BME280;26579;43.238;23.124;2022-11-18T03:24:44;95770.41;;;14.94;54.90
39411;BME280;26579;43.238;23.124;2022-11-18T03:27:41;95785.31;;;15.09;53.04
39411;BME280;26579;43.238;23.124;2022-11-18T03:30:33;95773.94;;;15.16;53.06
39411;BME280;26579;43.238;23.124;2022-11-18T03:33:23;95784.22;;;15.18;53.57
39411;BME280;26579;43.238;23.124;2022-11-18T03:36:21;95783.84;;;15.21;53.82
39411;BME280;26579;43.238;23.124;2022-11-18T03:39:18;95781.53;;;15.11;54.09
39411;BME280;26579;43.238;23.124;2022-11-18T03:42:43;95769.50;;;15.02;53.85
39411;BME280;26579;43.238;23.124;2022-11-18T03:45:28;95793.75;;;15.04;54.34
39411;BME280;26579;43.238;23.124;2022-11-18T03:48:52;95793.91;;;14.88;56.37
39411;BME280;26579;43.238;23.124;2022-11-18T03:51:35;95792.47;;;14.85;56.17
39411;BME280;26579;43.238;23.124;2022-11-18T03:54:09;95780.53;;;14.68;56.88
39411;BME280;26579;43.238;23.124;2022-11-18T03:56:38;95774.31;;;14.69;56.40
39411;BME280;26579;43.238;23.124;2022-11-18T03:59:36;95789.50;;;14.50;57.16
39411;BME280;26579;43.238;23.124;2022-11-18T04:02:14;95796.66;;;14.57;56.85
39411;BME280;26579;43.238;23.124;2022-11-18T04:04:54;95788.59;;;14.43;57.72
39411;BME280;26579;43.238;23.124;2022-11-18T04:10:18;95792.53;;;14.39;58.49
39411;BME280;26579;43.238;23.124;2022-11-18T04:13:16;95784.22;;;14.36;58.51
39411;BME280;26579;43.238;23.124;2022-11-18T04:15:48;95778.88;;;14.29;58.50
39411;BME280;26579;43.238;23.124;2022-11-18T04:18:26;95787.66;;;14.36;58.26
39411;BME280;26579;43.238;23.124;2022-11-18T04:20:53;95770.75;;;14.24;58.63
39411;BME280;26579;43.238;23.124;2022-11-18T04:23:23;95785.44;;;14.25;59.39
39411;BME280;26579;43.238;23.124;2022-11-18T04:25:51;95786.16;;;14.19;59.55
39411;BME280;26579;43.238;23.124;2022-11-18T04:28:24;95785.69;;;14.15;59.46
39411;BME280;26579;43.238;23.124;2022-11-18T04:30:52;95786.06;;;14.12;59.86
39411;BME280;26579;43.238;23.124;2022-11-18T04:33:19;95792.81;;;14.07;60.42
39411;BME280;26579;43.238;23.124;2022-11-18T04:35:46;95799.66;;;14.08;59.90
39411;BME280;26579;43.238;23.124;2022-11-18T04:38:16;95790.03;;;14.08;59.76
39411;BME280;26579;43.238;23.124;2022-11-18T04:40:52;95789.88;;;14.01;59.90
39411;BME280;26579;43.238;23.124;2022-11-18T04:43:20;95796.47;;;13.97;60.38
39411;BME280;26579;43.238;23.124;2022-11-18T04:45:49;95803.97;;;14.00;59.73
39411;BME280;26579;43.238;23.124;2022-11-18T04:48:16;95795.53;;;13.90;60.38
39411;BME280;26579;43.238;23.124;2022-11-18T04:50:42;95793.78;;;13.82;60.25
39411;BME280;26579;43.238;23.124;2022-11-18T04:53:11;95794.91;;;13.88;59.39
39411;BME280;26579;43.238;23.124;2022-11-18T04:55:38;95796.38;;;13.91;59.80
39411;BME280;26579;43.238;23.124;2022-11-18T04:58:13;95800.53;;;14.00;59.11
39411;BME280;26579;43.238;23.124;2022-11-18T05:00:42;95795.94;;;14.02;59.34
39411;BME280;26579;43.238;23.124;2022-11-18T05:03:11;95790.78;;;13.94;59.70
39411;BME280;26579;43.238;23.124;2022-11-18T05:05:38;95795.53;;;13.90;60.24
39411;BME280;26579;43.238;23.124;2022-11-18T05:08:07;95801.59;;;13.91;59.19
39411;BME280;26579;43.238;23.124;2022-11-18T05:10:38;95810.81;;;14.01;59.34
39411;BME280;26579;43.238;23.124;2022-11-18T05:13:12;95793.31;;;14.02;59.03
39411;BME280;26579;43.238;23.124;2022-11-18T05:15:46;95799.38;;;14.02;59.05
39411;BME280;26579;43.238;23.124;2022-11-18T05:18:13;95806.88;;;14.06;59.15
39411;BME280;26579;43.238;23.124;2022-11-18T05:20:40;95812.47;;;14.02;59.58
39411;BME280;26579;43.238;23.124;2022-11-18T05:23:07;95802.34;;;13.99;59.07
39411;BME280;26579;43.238;23.124;2022-11-18T05:25:34;95810.72;;;13.95;59.93
39411;BME280;26579;43.238;23.124;2022-11-18T05:28:01;95808.91;;;13.95;60.30
39411;BME280;26579;43.238;23.124;2022-11-18T05:30:29;95808.59;;;13.90;59.15
39411;BME280;26579;43.238;23.124;2022-11-18T05:32:57;95809.09;;;13.94;59.83
39411;BME280;26579;43.238;23.124;2022-11-18T05:35:24;95809.66;;;13.81;61.15
39411;BME280;26579;43.238;23.124;2022-11-18T05:37:52;95811.03;;;13.69;61.17
39411;BME280;26579;43.238;23.124;2022-11-18T05:40:26;95802.88;;;13.64;61.73
39411;BME280;26579;43.238;23.124;2022-11-18T05:42:55;95808.41;;;13.69;60.93
39411;BME280;26579;43.238;23.124;2022-11-18T05:45:26;95810.69;;;13.72;60.68
39411;BME280;26579;43.238;23.124;2022-11-18T05:47:56;95817.50;;;13.81;60.36
39411;BME280;26579;43.238;23.124;2022-11-18T05:50:25;95813.41;;;13.78;60.77
39411;BME280;26579;43.238;23.124;2022-11-18T05:52:53;95816.19;;;13.85;59.49
39411;BME280;26579;43.238;23.124;2022-11-18T05:55:24;95822.09;;;13.79;61.04
39411;BME280;26579;43.238;23.124;2022-11-18T05:57:53;95802.34;;;13.76;60.31
39411;BME280;26579;43.238;23.124;2022-11-18T06:00:20;95807.72;;;13.75;60.42
39411;BME280;26579;43.238;23.124;2022-11-18T06:02:48;95812.09;;;13.82;60.46
39411;BME280;26579;43.238;23.124;2022-11-18T06:05:18;95815.88;;;13.80;61.06
39411;BME280;26579;43.238;23.124;2022-11-18T06:07:48;95806.88;;;13.82;60.92
39411;BME280;26579;43.238;23.124;2022-11-18T06:10:22;95796.91;;;13.78;60.57
39411;BME280;26579;43.238;23.124;2022-11-18T06:12:53;95787.09;;;13.80;60.49
39411;BME280;26579;43.238;23.124;2022-11-18T06:15:35;95813.03;;;13.90;60.46
39411;BME280;26579;43.238;23.124;2022-11-18T06:18:30;95794.50;;;13.99;60.45
39411;BME280;26579;43.238;23.124;2022-11-18T06:21:00;95802.56;;;14.13;59.88
39411;BME280;26579;43.238;23.124;2022-11-18T06:23:29;95801.00;;;14.26;59.27
39411;BME280;26579;43.238;23.124;2022-11-18T06:26:01;95800.56;;;14.38;59.15
39411;BME280;26579;43.238;23.124;2022-11-18T06:28:28;95793.81;;;14.43;58.68
39411;BME280;26579;43.238;23.124;2022-11-18T06:30:56;95802.53;;;14.59;57.90
39411;BME280;26579;43.238;23.124;2022-11-18T06:33:24;95802.84;;;14.79;56.77
39411;BME280;26579;43.238;23.124;2022-11-18T06:35:57;95785.31;;;14.94;56.39
39411;BME280;26579;43.238;23.124;2022-11-18T06:38:26;95789.66;;;15.16;55.64
39411;BME280;26579;43.238;23.124;2022-11-18T06:40:58;95788.13;;;15.58;54.30
39411;BME280;26579;43.238;23.124;2022-11-18T06:43:28;95794.38;;;16.09;52.71
39411;BME280;26579;43.238;23.124;2022-11-18T06:46:01;95796.59;;;16.33;52.05
39411;BME280;26579;43.238;23.124;2022-11-18T06:48:30;95805.66;;;16.30;51.68
39411;BME280;26579;43.238;23.124;2022-11-18T06:50:57;95799.53;;;16.23;52.03
39411;BME280;26579;43.238;23.124;2022-11-18T06:53:23;95788.91;;;16.10;51.30
39411;BME280;26579;43.238;23.124;2022-11-18T06:55:49;95797.31;;;16.20;51.62
39411;BME280;26579;43.238;23.124;2022-11-18T06:58:18;95792.84;;;16.21;51.76
39411;BME280;26579;43.238;23.124;2022-11-18T07:00:47;95798.66;;;16.38;51.79
39411;BME280;26579;43.238;23.124;2022-11-18T07:03:16;95806.47;;;16.52;51.95
39411;BME280;26579;43.238;23.124;2022-11-18T07:05:44;95788.91;;;16.60;51.39
39411;BME280;26579;43.238;23.124;2022-11-18T07:08:18;95780.66;;;16.63;50.42
39411;BME280;26579;43.238;23.124;2022-11-18T07:10:57;95782.66;;;17.24;48.78
39411;BME280;26579;43.238;23.124;2022-11-18T07:13:24;95784.84;;;17.68;48.25
39411;BME280;26579;43.238;23.124;2022-11-18T07:15:52;95787.00;;;17.99;47.13
39411;BME280;26579;43.238;23.124;2022-11-18T07:18:19;95794.75;;;18.27;46.86
39411;BME280;26579;43.238;23.124;2022-11-18T07:20:45;95793.88;;;18.00;46.59
39411;BME280;26579;43.238;23.124;2022-11-18T07:23:11;95793.28;;;17.98;46.49
39411;BME280;26579;43.238;23.124;2022-11-18T07:25:37;95788.63;;;18.20;46.20
39411;BME280;26579;43.238;23.124;2022-11-18T07:28:05;95790.91;;;18.37;45.94
39411;BME280;26579;43.238;23.124;2022-11-18T07:30:34;95778.91;;;18.67;45.85
39411;BME280;26579;43.238;23.124;2022-11-18T07:33:03;95777.38;;;19.31;45.00
39411;BME280;26579;43.238;23.124;2022-11-18T07:35:30;95783.25;;;19.47;44.15
39411;BME280;26579;43.238;23.124;2022-11-18T07:37:56;95776.81;;;19.22;44.26
39411;BME280;26579;43.238;23.124;2022-11-18T07:40:27;95760.25;;;19.99;41.71
39411;BME280;26579;43.238;23.124;2022-11-18T07:42:55;95765.66;;;20.35;40.70
39411;BME280;26579;43.238;23.124;2022-11-18T07:45:26;95751.97;;;20.20;41.70
39411;BME280;26579;43.238;23.124;2022-11-18T07:47:57;95741.50;;;20.32;41.71
39411;BME280;26579;43.238;23.124;2022-11-18T07:50:33;95751.22;;;19.81;43.02
39411;BME280;26579;43.238;23.124;2022-11-18T07:53:07;95753.19;;;19.48;42.62
39411;BME280;26579;43.238;23.124;2022-11-18T07:55:38;95762.19;;;20.10;42.10
39411;BME280;26579;43.238;23.124;2022-11-18T07:58:08;95737.75;;;20.71;39.93
39411;BME280;26579;43.238;23.124;2022-11-18T08:00:48;95753.72;;;20.58;39.87
39411;BME280;26579;43.238;23.124;2022-11-18T08:03:28;95745.75;;;20.08;41.20
39411;BME280;26579;43.238;23.124;2022-11-18T08:06:14;95751.78;;;19.83;42.23
39411;BME280;26579;43.238;23.124;2022-11-18T08:08:47;95743.81;;;19.52;43.05
39411;BME280;26579;43.238;23.124;2022-11-18T08:11:17;95739.44;;;19.32;42.91
39411;BME280;26579;43.238;23.124;2022-11-18T08:13:50;95730.41;;;19.02;43.41
39411;BME280;26579;43.238;23.124;2022-11-18T08:16:19;95715.66;;;18.81;44.05
39411;BME280;26579;43.238;23.124;2022-11-18T08:18:53;95726.00;;;18.82;44.39
39411;BME280;26579;43.238;23.124;2022-11-18T08:21:21;95714.38;;;19.93;41.24
39411;BME280;26579;43.238;23.124;2022-11-18T08:23:52;95719.38;;;21.32;38.52
39411;BME280;26579;43.238;23.124;2022-11-18T08:26:22;95725.56;;;21.25;38.74
39411;BME280;26579;43.238;23.124;2022-11-18T08:28:51;95717.00;;;22.56;35.31
39411;BME280;26579;43.238;23.124;2022-11-18T08:31:20;95719.47;;;21.74;36.38
39411;BME280;26579;43.238;23.124;2022-11-18T08:33:54;95712.00;;;21.52;37.85
39411;BME280;26579;43.238;23.124;2022-11-18T08:36:24;95711.16;;;24.32;33.40
39411;BME280;26579;43.238;23.124;2022-11-18T08:38:54;95696.34;;;26.77;28.87
39411;BME280;26579;43.238;23.124;2022-11-18T08:41:32;95692.47;;;29.01;26.48
39411;BME280;26579;43.238;23.124;2022-11-18T08:44:01;95678.56;;;28.88;24.34
39411;BME280;26579;43.238;23.124;2022-11-18T08:46:30;95676.28;;;29.86;23.69
39411;BME280;26579;43.238;23.124;2022-11-18T08:48:58;95681.06;;;28.34;25.93
39411;BME280;26579;43.238;23.124;2022-11-18T08:51:26;95659.63;;;27.83;25.83
39411;BME280;26579;43.238;23.124;2022-11-18T08:53:55;95664.72;;;27.94;26.07
39411;BME280;26579;43.238;23.124;2022-11-18T08:56:26;95675.47;;;29.41;24.34
39411;BME280;26579;43.238;23.124;2022-11-18T08:58:55;95665.31;;;29.28;24.09
39411;BME280;26579;43.238;23.124;2022-11-18T09:01:24;95672.81;;;30.54;22.37
39411;BME280;26579;43.238;23.124;2022-11-18T09:03:52;95676.09;;;31.04;22.07
39411;BME280;26579;43.238;23.124;2022-11-18T09:06:22;95673.28;;;32.14;20.18
39411;BME280;26579;43.238;23.124;2022-11-18T09:08:51;95653.69;;;32.28;20.32
39411;BME280;26579;43.238;23.124;2022-11-18T09:11:23;95661.94;;;29.12;22.38
39411;BME280;26579;43.238;23.124;2022-11-18T09:13:53;95653.50;;;28.43;23.83
39411;BME280;26579;43.238;23.124;2022-11-18T09:16:24;95653.91;;;29.62;22.36
39411;BME280;26579;43.238;23.124;2022-11-18T09:18:58;95642.84;;;31.19;20.85
39411;BME280;26579;43.238;23.124;2022-11-18T09:21:25;95653.38;;;32.15;19.41
39411;BME280;26579;43.238;23.124;2022-11-18T09:23:53;95631.16;;;32.70;19.50
39411;BME280;26579;43.238;23.124;2022-11-18T09:26:20;95626.09;;;32.36;19.68
39411;BME280;26579;43.238;23.124;2022-11-18T09:28:52;95628.88;;;31.98;20.15
39411;BME280;26579;43.238;23.124;2022-11-18T09:31:21;95634.75;;;33.34;18.69
39411;BME280;26579;43.238;23.124;2022-11-18T09:33:49;95620.38;;;32.56;18.63
39411;BME280;26579;43.238;23.124;2022-11-18T09:36:23;95629.88;;;32.35;18.64
39411;BME280;26579;43.238;23.124;2022-11-18T09:38:51;95622.41;;;31.99;19.62
39411;BME280;26579;43.238;23.124;2022-11-18T09:47:00;95600.22;;;32.54;18.51
39411;BME280;26579;43.238;23.124;2022-11-18T09:49:36;95601.72;;;32.74;18.50
39411;BME280;26579;43.238;23.124;2022-11-18T09:52:29;95601.50;;;31.39;20.43
39411;BME280;26579;43.238;23.124;2022-11-18T09:55:00;95584.34;;;31.54;20.47
39411;BME280;26579;43.238;23.124;2022-11-18T09:57:43;95589.72;;;32.38;20.05
39411;BME280;26579;43.238;23.124;2022-11-18T10:00:16;95581.28;;;33.00;19.39
39411;BME280;26579;43.238;23.124;2022-11-18T10:03:13;95580.00;;;31.39;20.21
39411;BME280;26579;43.238;23.124;2022-11-18T10:08:29;95584.25;;;30.73;20.88
39411;BME280;26579;43.238;23.124;2022-11-18T10:11:22;95580.56;;;29.42;22.58
39411;BME280;26579;43.238;23.124;2022-11-18T10:14:18;95578.03;;;28.41;24.13
39411;BME280;26579;43.238;23.124;2022-11-18T10:19:45;95563.06;;;27.69;24.62
39411;BME280;26579;43.238;23.124;2022-11-18T10:22:27;95557.44;;;27.60;24.60
39411;BME280;26579;43.238;23.124;2022-11-18T10:24:59;95547.19;;;27.11;25.14
39411;BME280;26579;43.238;23.124;2022-11-18T10:27:35;95532.09;;;26.64;25.41
39411;BME280;26579;43.238;23.124;2022-11-18T10:33:03;95545.03;;;26.93;26.69
39411;BME280;26579;43.238;23.124;2022-11-18T10:35:42;95516.38;;;26.73;25.66
39411;BME280;26579;43.238;23.124;2022-11-18T10:38:16;95537.69;;;26.15;25.68
39411;BME280;26579;43.238;23.124;2022-11-18T10:46:25;95532.41;;;25.45;27.87
39411;BME280;26579;43.238;23.124;2022-11-18T10:54:23;95522.53;;;25.78;26.73
39411;BME280;26579;43.238;23.124;2022-11-18T10:56:55;95496.66;;;25.79;26.34
39411;BME280;26579;43.238;23.124;2022-11-18T11:05:00;95493.03;;;24.98;28.15
39411;BME280;26579;43.238;23.124;2022-11-18T11:07:38;95501.34;;;25.02;27.89
39411;BME280;26579;43.238;23.124;2022-11-18T11:12:40;95507.56;;;24.85;28.70
39411;BME280;26579;43.238;23.124;2022-11-18T11:15:17;95511.13;;;24.47;28.79
39411;BME280;26579;43.238;23.124;2022-11-18T11:18:01;95485.31;;;23.87;29.66
39411;BME280;26579;43.238;23.124;2022-11-18T11:20:31;95498.78;;;23.80;29.97
39411;BME280;26579;43.238;23.124;2022-11-18T11:22:59;95503.09;;;24.03;29.58
39411;BME280;26579;43.238;23.124;2022-11-18T11:25:53;95508.88;;;24.39;29.45
39411;BME280;26579;43.238;23.124;2022-11-18T11:28:30;95499.84;;;24.62;28.99
39411;BME280;26579;43.238;23.124;2022-11-18T11:34:05;95487.41;;;24.95;29.19
39411;BME280;26579;43.238;23.124;2022-11-18T11:39:46;95479.13;;;24.91;28.93
39411;BME280;26579;43.238;23.124;2022-11-18T11:42:37;95472.19;;;24.63;29.39
39411;BME280;26579;43.238;23.124;2022-11-18T11:45:35;95466.47;;;23.88;30.11
39411;BME280;26579;43.238;23.124;2022-11-18T11:48:22;95468.44;;;23.59;30.81
39411;BME280;26579;43.238;23.124;2022-11-18T11:50:54;95458.59;;;23.43;31.14
39411;BME280;26579;43.238;23.124;2022-11-18T11:56:37;95462.94;;;22.98;32.33
39411;BME280;26579;43.238;23.124;2022-11-18T12:06:57;95436.72;;;22.45;34.07
39411;BME280;26579;43.238;23.124;2022-11-18T12:17:23;95433.53;;;21.79;36.30
39411;BME280;26579;43.238;23.124;2022-11-18T12:19:57;95415.91;;;21.25;37.10
39411;BME280;26579;43.238;23.124;2022-11-18T12:25:50;95425.00;;;21.77;36.92
39411;BME280;26579;43.238;23.124;2022-11-18T12:28:23;95418.34;;;21.74;36.91
39411;BME280;26579;43.238;23.124;2022-11-18T12:30:49;95418.25;;;21.45;36.96
39411;BME280;26579;43.238;23.124;2022-11-18T12:33:16;95413.03;;;21.27;37.07
39411;BME280;26579;43.238;23.124;2022-11-18T12:35:49;95428.13;;;21.27;37.56
39411;BME280;26579;43.238;23.124;2022-11-18T12:38:30;95420.72;;;21.17;37.53
39411;BME280;26579;43.238;23.124;2022-11-18T12:40:57;95410.50;;;21.32;38.11
39411;BME280;26579;43.238;23.124;2022-11-18T12:45:56;95405.31;;;21.73;36.60
39411;BME280;26579;43.238;23.124;2022-11-18T12:48:29;95410.50;;;21.79;36.54
39411;BME280;26579;43.238;23.124;2022-11-18T12:50:57;95399.25;;;21.37;37.30
39411;BME280;26579;43.238;23.124;2022-11-18T12:53:31;95392.06;;;21.25;37.51
39411;BME280;26579;43.238;23.124;2022-11-18T12:55:58;95390.47;;;21.24;38.90
39411;BME280;26579;43.238;23.124;2022-11-18T12:58:25;95389.44;;;21.25;38.57
39411;BME280;26579;43.238;23.124;2022-11-18T13:01:11;95371.72;;;21.26;38.44
39411;BME280;26579;43.238;23.124;2022-11-18T13:03:37;95382.75;;;21.11;38.58
39411;BME280;26579;43.238;23.124;2022-11-18T13:08:59;95390.47;;;21.01;38.25
39411;BME280;26579;43.238;23.124;2022-11-18T13:11:28;95402.75;;;20.95;38.51
39411;BME280;26579;43.238;23.124;2022-11-18T13:13:54;95399.06;;;20.85;39.44
39411;BME280;26579;43.238;23.124;2022-11-18T13:16:22;95378.69;;;20.73;38.57
39411;BME280;26579;43.238;23.124;2022-11-18T13:18:58;95374.78;;;20.76;39.02
39411;BME280;26579;43.238;23.124;2022-11-18T13:21:27;95380.97;;;20.70;39.86
39411;BME280;26579;43.238;23.124;2022-11-18T13:23:59;95375.94;;;20.50;38.86
39411;BME280;26579;43.238;23.124;2022-11-18T13:26:31;95361.94;;;20.49;39.32
39411;BME280;26579;43.238;23.124;2022-11-18T13:34:25;95384.13;;;20.48;40.36
39411;BME280;26579;43.238;23.124;2022-11-18T13:36:53;95390.59;;;20.52;39.91
39411;BME280;26579;43.238;23.124;2022-11-18T13:39:30;95379.19;;;20.52;39.54
39411;BME280;26579;43.238;23.124;2022-11-18T13:42:02;95369.38;;;20.41;39.27
39411;BME280;26579;43.238;23.124;2022-11-18T13:44:33;95374.97;;;20.32;39.02
39411;BME280;26579;43.238;23.124;2022-11-18T13:55:19;95349.84;;;20.11;41.07
39411;BME280;26579;43.238;23.124;2022-11-18T13:58:00;95354.69;;;20.15;42.05
39411;BME280;26579;43.238;23.124;2022-11-18T14:00:32;95339.06;;;20.13;42.69
39411;BME280;26579;43.238;23.124;2022-11-18T14:05:53;95367.44;;;20.18;40.97
39411;BME280;26579;43.238;23.124;2022-11-18T14:08:31;95360.22;;;20.13;41.81
39411;BME280;26579;43.238;23.124;2022-11-18T14:11:02;95359.16;;;20.14;41.64
39411;BME280;26579;43.238;23.124;2022-11-18T14:13:34;95340.03;;;20.00;41.68
39411;BME280;26579;43.238;23.124;2022-11-18T14:18:48;95359.97;;;19.84;40.94
39411;BME280;26579;43.238;23.124;2022-11-18T14:21:25;95355.56;;;19.78;41.64
39411;BME280;26579;43.238;23.124;2022-11-18T14:23:52;95370.72;;;19.83;41.68
39411;BME280;26579;43.238;23.124;2022-11-18T14:26:32;95364.00;;;19.87;41.52
39411;BME280;26579;43.238;23.124;2022-11-18T14:29:18;95340.69;;;19.84;41.41
39411;BME280;26579;43.238;23.124;2022-11-18T14:32:13;95354.88;;;19.83;42.03
39411;BME280;26579;43.238;23.124;2022-11-18T14:35:01;95339.72;;;19.78;41.78
39411;BME280;26579;43.238;23.124;2022-11-18T14:37:30;95325.13;;;19.76;42.40
39411;BME280;26579;43.238;23.124;2022-11-18T14:39:56;95332.09;;;19.70;42.01
39411;BME280;26579;43.238;23.124;2022-11-18T14:42:23;95313.28;;;19.60;41.95
39411;BME280;26579;43.238;23.124;2022-11-18T14:44:50;95320.50;;;19.71;42.15
39411;BME280;26579;43.238;23.124;2022-11-18T14:47:27;95312.94;;;19.56;43.27
39411;BME280;26579;43.238;23.124;2022-11-18T14:49:55;95306.19;;;19.42;42.48
39411;BME280;26579;43.238;23.124;2022-11-18T14:52:21;95336.19;;;19.48;41.25
39411;BME280;26579;43.238;23.124;2022-11-18T14:54:48;95336.47;;;19.21;42.02
39411;BME280;26579;43.238;23.124;2022-11-18T14:57:15;95347.81;;;19.21;42.57
39411;BME280;26579;43.238;23.124;2022-11-18T14:59:44;95339.09;;;19.03;43.41
39411;BME280;26579;43.238;23.124;2022-11-18T15:02:16;95347.13;;;19.08;44.84
39411;BME280;26579;43.238;23.124;2022-11-18T15:04:42;95359.06;;;19.10;45.43
39411;BME280;26579;43.238;23.124;2022-11-18T15:07:11;95352.25;;;19.03;44.36
39411;BME280;26579;43.238;23.124;2022-11-18T15:09:38;95368.91;;;18.71;44.12
39411;BME280;26579;43.238;23.124;2022-11-18T15:12:04;95340.19;;;18.31;44.90
39411;BME280;26579;43.238;23.124;2022-11-18T15:14:31;95354.03;;;18.52;45.95
39411;BME280;26579;43.238;23.124;2022-11-18T15:16:57;95354.78;;;18.34;48.64
39411;BME280;26579;43.238;23.124;2022-11-18T15:19:23;95338.25;;;18.20;49.74
39411;BME280;26579;43.238;23.124;2022-11-18T15:21:52;95351.44;;;18.14;50.78
39411;BME280;26579;43.238;23.124;2022-11-18T15:24:18;95345.00;;;18.09;50.91
39411;BME280;26579;43.238;23.124;2022-11-18T15:26:45;95348.88;;;18.00;50.92